createdAt,value
2019-03-23T00:00:42.306Z,1019.44
2019-03-23T00:01:42.273Z,1019.42
2019-03-23T00:02:42.218Z,1019.48
2019-03-23T00:03:42.213Z,1019.44
2019-03-23T00:04:42.194Z,1019.43
2019-03-23T00:05:42.185Z,1019.41
2019-03-23T00:06:42.173Z,1019.41
2019-03-23T00:07:42.207Z,1019.39
2019-03-23T00:08:42.151Z,1019.44
2019-03-23T00:09:42.146Z,1019.41
2019-03-23T00:10:42.128Z,1019.40
2019-03-23T00:11:42.169Z,1019.40
2019-03-23T00:12:42.109Z,1019.43
2019-03-23T00:13:42.140Z,1019.45
2019-03-23T00:14:42.090Z,1019.45
2019-03-23T00:15:42.072Z,1019.44
2019-03-23T00:16:42.066Z,1019.48
2019-03-23T00:17:42.057Z,1019.50
2019-03-23T00:18:42.050Z,1019.48
2019-03-23T00:19:42.072Z,1019.53
2019-03-23T00:20:42.022Z,1019.50
2019-03-23T00:21:42.007Z,1019.51
2019-03-23T00:22:42.036Z,1019.50
2019-03-23T00:23:41.989Z,1019.51
2019-03-23T00:24:41.973Z,1019.49
2019-03-23T00:25:41.961Z,1019.46
2019-03-23T00:26:41.954Z,1019.50
2019-03-23T00:27:41.977Z,1019.46
2019-03-23T00:28:41.927Z,1019.49
2019-03-23T00:29:41.918Z,1019.47
2019-03-23T00:30:41.904Z,1019.49
2019-03-23T00:31:41.951Z,1019.48
2019-03-23T00:32:41.886Z,1019.51
2019-03-23T00:33:41.874Z,1019.49
2019-03-23T00:34:41.860Z,1019.48
2019-03-23T00:35:41.850Z,1019.51
2019-03-23T00:36:42.048Z,1019.45
2019-03-23T00:37:41.869Z,1019.51
2019-03-23T00:38:41.822Z,1019.56
2019-03-23T00:39:41.803Z,1019.52
2019-03-23T00:40:41.793Z,1019.57
2019-03-23T00:41:41.783Z,1019.57
2019-03-23T00:42:41.815Z,1019.59
2019-03-23T00:43:41.768Z,1019.63
2019-03-23T00:44:41.759Z,1019.57
2019-03-23T00:45:41.744Z,1019.64
2019-03-23T00:46:41.780Z,1019.64
2019-03-23T00:47:41.725Z,1019.64
2019-03-23T00:48:41.706Z,1019.62
2019-03-23T00:49:41.741Z,1019.62
2019-03-23T00:50:41.683Z,1019.63
2019-03-23T00:51:41.671Z,1019.63
2019-03-23T00:52:41.663Z,1019.62
2019-03-23T00:53:41.654Z,1019.60
2019-03-23T00:54:41.636Z,1019.65
2019-03-23T00:55:41.914Z,1019.62
2019-03-23T00:56:41.617Z,1019.63
2019-03-23T00:57:41.606Z,1019.65
2019-03-23T00:58:41.594Z,1019.64
2019-03-23T00:59:41.634Z,1019.63
2019-03-23T01:00:41.576Z,1019.63
2019-03-23T01:01:41.571Z,1019.61
2019-03-23T01:02:42.021Z,1019.61
2019-03-23T01:03:41.585Z,1019.63
2019-03-23T01:04:41.582Z,1019.60
2019-03-23T01:05:41.516Z,1019.63
2019-03-23T01:06:51.567Z,1019.63
2019-03-23T01:07:42.498Z,1019.62
2019-03-23T01:08:41.484Z,1019.62
2019-03-23T01:09:41.521Z,1019.66
2019-03-23T01:10:41.459Z,1019.64
2019-03-23T01:11:41.450Z,1019.73
2019-03-23T01:12:41.438Z,1019.66
2019-03-23T01:13:41.431Z,1019.62
2019-03-23T01:14:41.458Z,1019.63
2019-03-23T01:15:41.407Z,1019.67
2019-03-23T01:16:41.451Z,1019.65
2019-03-23T01:17:41.383Z,1019.61
2019-03-23T01:18:41.371Z,1019.59
2019-03-23T01:19:41.372Z,1019.59
2019-03-23T01:20:49.369Z,1019.59
2019-03-23T01:21:42.382Z,1019.62
2019-03-23T01:22:41.331Z,1019.63
2019-03-23T01:23:41.318Z,1019.61
2019-03-23T01:24:41.350Z,1019.61
2019-03-23T01:25:41.301Z,1019.64
2019-03-23T01:26:41.284Z,1019.61
2019-03-23T01:27:41.274Z,1019.65
2019-03-23T01:28:41.264Z,1019.64
2019-03-23T01:29:41.301Z,1019.69
2019-03-23T01:30:41.248Z,1019.68
2019-03-23T01:31:41.229Z,1019.67
2019-03-23T01:32:41.218Z,1019.66
2019-03-23T01:33:41.207Z,1019.70
2019-03-23T01:34:41.211Z,1019.70
2019-03-23T01:35:41.232Z,1019.71
2019-03-23T01:36:41.178Z,1019.68
2019-03-23T01:37:41.163Z,1019.69
2019-03-23T01:38:41.150Z,1019.71
2019-03-23T01:39:41.139Z,1019.68
2019-03-23T01:40:41.175Z,1019.68
2019-03-23T01:41:41.117Z,1019.68
2019-03-23T01:42:41.120Z,1019.62
2019-03-23T01:43:41.096Z,1019.61
2019-03-23T01:44:41.135Z,1019.62
2019-03-23T01:45:41.071Z,1019.66
2019-03-23T01:46:41.062Z,1019.63
2019-03-23T01:47:41.099Z,1019.63
2019-03-23T01:48:41.065Z,1019.62
2019-03-23T01:49:41.028Z,1019.64
2019-03-23T01:50:41.020Z,1019.63
2019-03-23T01:51:41.006Z,1019.62
2019-03-23T01:52:40.998Z,1019.63
2019-03-23T01:53:41.031Z,1019.67
2019-03-23T01:54:40.977Z,1019.63
2019-03-23T01:55:40.963Z,1019.66
2019-03-23T01:56:40.952Z,1019.61
2019-03-23T01:57:40.982Z,1019.64
2019-03-23T01:58:40.933Z,1019.60
2019-03-23T01:59:40.922Z,1019.66
2019-03-23T02:00:40.955Z,1019.66
2019-03-23T02:01:40.898Z,1019.62
2019-03-23T02:02:40.889Z,1019.65
2019-03-23T02:03:40.919Z,1019.62
2019-03-23T02:04:40.866Z,1019.65
2019-03-23T02:05:40.856Z,1019.66
2019-03-23T02:06:40.860Z,1019.68
2019-03-23T02:07:40.884Z,1019.62
2019-03-23T02:08:40.820Z,1019.60
2019-03-23T02:09:40.858Z,1019.64
2019-03-23T02:10:41.922Z,1019.66
2019-03-23T02:11:40.794Z,1019.67
2019-03-23T02:12:40.787Z,1019.70
2019-03-23T02:13:40.767Z,1019.63
2019-03-23T02:14:40.801Z,1019.66
2019-03-23T02:15:40.749Z,1019.66
2019-03-23T02:16:40.783Z,1019.64
2019-03-23T02:17:40.737Z,1019.64
2019-03-23T02:18:40.733Z,1019.66
2019-03-23T02:19:40.706Z,1019.60
2019-03-23T02:20:40.691Z,1019.63
2019-03-23T02:21:40.686Z,1019.65
2019-03-23T02:22:40.726Z,1019.63
2019-03-23T02:23:40.712Z,1019.66
2019-03-23T02:24:40.647Z,1019.67
2019-03-23T02:25:40.635Z,1019.65
2019-03-23T02:26:40.641Z,1019.65
2019-03-23T02:27:40.616Z,1019.68
2019-03-23T02:28:40.605Z,1019.66
2019-03-23T02:29:40.641Z,1019.72
2019-03-23T02:30:40.585Z,1019.73
2019-03-23T02:31:40.571Z,1019.74
2019-03-23T02:32:40.632Z,1019.74
2019-03-23T02:33:40.591Z,1019.77
2019-03-23T02:34:40.589Z,1019.80
2019-03-23T02:35:40.540Z,1019.78
2019-03-23T02:36:40.537Z,1019.81
2019-03-23T02:37:40.512Z,1019.80
2019-03-23T02:38:40.511Z,1019.83
2019-03-23T02:39:40.486Z,1019.86
2019-03-23T02:40:40.521Z,1019.84
2019-03-23T02:41:40.467Z,1019.87
2019-03-23T02:42:40.454Z,1019.85
2019-03-23T02:43:40.444Z,1019.84
2019-03-23T02:44:40.430Z,1019.82
2019-03-23T02:45:40.459Z,1019.86
2019-03-23T02:46:40.414Z,1019.87
2019-03-23T02:47:40.504Z,1019.84
2019-03-23T02:48:40.397Z,1019.86
2019-03-23T02:49:40.423Z,1019.78
2019-03-23T02:50:40.368Z,1019.81
2019-03-23T02:51:40.358Z,1019.82
2019-03-23T02:52:40.345Z,1019.85
2019-03-23T02:53:40.340Z,1019.80
2019-03-23T02:54:40.322Z,1019.81
2019-03-23T02:55:40.357Z,1019.88
2019-03-23T02:56:40.300Z,1019.91
2019-03-23T02:57:40.350Z,1019.94
2019-03-23T02:58:40.322Z,1019.94
2019-03-23T02:59:40.272Z,1019.94
2019-03-23T03:00:40.255Z,1019.97
2019-03-23T03:01:40.246Z,1019.94
2019-03-23T03:02:40.239Z,1020.01
2019-03-23T03:03:40.238Z,1019.98
2019-03-23T03:04:40.260Z,1019.99
2019-03-23T03:05:40.211Z,1019.99
2019-03-23T03:06:40.194Z,1020.00
2019-03-23T03:07:42.536Z,1020.04
2019-03-23T03:08:40.175Z,1020.01
2019-03-23T03:09:40.159Z,1020.00
2019-03-23T03:10:40.187Z,1020.08
2019-03-23T03:11:40.145Z,1020.05
2019-03-23T03:12:40.126Z,1020.08
2019-03-23T03:13:40.115Z,1020.09
2019-03-23T03:14:40.107Z,1020.07
2019-03-23T03:15:40.131Z,1020.12
2019-03-23T03:16:40.099Z,1020.15
2019-03-23T03:17:40.104Z,1020.17
2019-03-23T03:18:40.060Z,1020.16
2019-03-23T03:19:40.085Z,1020.20
2019-03-23T03:20:40.049Z,1020.21
2019-03-23T03:21:40.063Z,1020.16
2019-03-23T03:22:40.027Z,1020.20
2019-03-23T03:23:40.020Z,1020.14
2019-03-23T03:24:39.997Z,1020.23
2019-03-23T03:25:39.983Z,1020.23
2019-03-23T03:26:40.006Z,1020.26
2019-03-23T03:27:39.993Z,1020.23
2019-03-23T03:28:39.989Z,1020.20
2019-03-23T03:29:39.948Z,1020.24
2019-03-23T03:30:39.939Z,1020.25
2019-03-23T03:31:39.977Z,1020.22
2019-03-23T03:32:39.915Z,1020.24
2019-03-23T03:33:39.913Z,1020.18
2019-03-23T03:34:39.892Z,1020.26
2019-03-23T03:35:39.930Z,1020.24
2019-03-23T03:36:39.908Z,1020.24
2019-03-23T03:37:39.857Z,1020.21
2019-03-23T03:38:39.848Z,1020.25
2019-03-23T03:39:39.837Z,1020.28
2019-03-23T03:40:39.830Z,1020.22
2019-03-23T03:41:39.811Z,1020.26
2019-03-23T03:42:39.839Z,1020.25
2019-03-23T03:43:39.794Z,1020.30
2019-03-23T03:44:39.786Z,1020.33
2019-03-23T03:45:39.802Z,1020.34
2019-03-23T03:46:39.757Z,1020.34
2019-03-23T03:47:41.396Z,1020.37
2019-03-23T03:48:39.777Z,1020.33
2019-03-23T03:49:39.726Z,1020.31
2019-03-23T03:50:39.723Z,1020.30
2019-03-23T03:51:39.704Z,1020.32
2019-03-23T03:52:39.708Z,1020.30
2019-03-23T03:53:39.699Z,1020.33
2019-03-23T03:54:39.707Z,1020.33
2019-03-23T03:55:39.659Z,1020.32
2019-03-23T03:56:39.659Z,1020.31
2019-03-23T03:57:39.640Z,1020.33
2019-03-23T03:58:39.673Z,1020.31
2019-03-23T03:59:39.620Z,1020.37
2019-03-23T04:00:39.608Z,1020.35
2019-03-23T04:01:39.597Z,1020.36
2019-03-23T04:02:39.586Z,1020.35
2019-03-23T04:03:39.609Z,1020.35
2019-03-23T04:04:39.597Z,1020.36
2019-03-23T04:05:39.562Z,1020.35
2019-03-23T04:06:39.577Z,1020.38
2019-03-23T04:07:39.530Z,1020.39
2019-03-23T04:08:39.556Z,1020.41
2019-03-23T04:09:40.478Z,1020.41
2019-03-23T04:10:39.512Z,1020.43
2019-03-23T04:11:39.513Z,1020.39
2019-03-23T04:12:39.522Z,1020.48
2019-03-23T04:13:39.476Z,1020.45
2019-03-23T04:14:39.457Z,1020.47
2019-03-23T04:15:39.444Z,1020.55
2019-03-23T04:16:39.469Z,1020.52
2019-03-23T04:17:39.428Z,1020.52
2019-03-23T04:18:39.424Z,1020.56
2019-03-23T04:19:39.410Z,1020.52
2019-03-23T04:20:39.394Z,1020.56
2019-03-23T04:21:39.418Z,1020.59
2019-03-23T04:22:39.378Z,1020.61
2019-03-23T04:23:39.361Z,1020.64
2019-03-23T04:24:39.355Z,1020.60
2019-03-23T04:25:39.339Z,1020.66
2019-03-23T04:26:39.591Z,1020.67
2019-03-23T04:27:39.371Z,1020.72
2019-03-23T04:28:39.336Z,1020.74
2019-03-23T04:29:39.302Z,1020.74
2019-03-23T04:30:39.283Z,1020.78
2019-03-23T04:31:39.308Z,1020.83
2019-03-23T04:32:39.265Z,1020.83
2019-03-23T04:33:39.284Z,1020.84
2019-03-23T04:34:39.243Z,1020.85
2019-03-23T04:35:39.246Z,1020.84
2019-03-23T04:36:39.221Z,1020.88
2019-03-23T04:37:39.273Z,1020.89
2019-03-23T04:38:39.212Z,1020.89
2019-03-23T04:39:39.186Z,1020.85
2019-03-23T04:40:39.182Z,1020.88
2019-03-23T04:41:39.164Z,1020.90
2019-03-23T04:42:39.152Z,1020.94
2019-03-23T04:43:39.182Z,1020.92
2019-03-23T04:44:39.136Z,1020.97
2019-03-23T04:45:39.126Z,1021.04
2019-03-23T04:46:39.125Z,1021.04
2019-03-23T04:47:39.105Z,1021.04
2019-03-23T04:48:39.133Z,1021.10
2019-03-23T04:49:39.077Z,1021.07
2019-03-23T04:50:39.069Z,1021.08
2019-03-23T04:51:39.055Z,1021.09
2019-03-23T04:52:39.055Z,1021.07
2019-03-23T04:53:39.036Z,1021.08
2019-03-23T04:54:39.088Z,1021.15
2019-03-23T04:55:39.012Z,1021.11
2019-03-23T04:56:39.003Z,1021.16
2019-03-23T04:57:38.990Z,1021.21
2019-03-23T04:58:38.992Z,1021.14
2019-03-23T04:59:38.997Z,1021.19
2019-03-23T05:00:39.002Z,1021.24
2019-03-23T05:01:38.946Z,1021.26
2019-03-23T05:02:38.941Z,1021.22
2019-03-23T05:03:38.927Z,1021.25
2019-03-23T05:04:38.927Z,1021.21
2019-03-23T05:05:38.903Z,1021.27
2019-03-23T05:06:38.932Z,1021.32
2019-03-23T05:07:38.925Z,1021.32
2019-03-23T05:08:38.874Z,1021.33
2019-03-23T05:09:38.895Z,1021.30
2019-03-23T05:10:38.875Z,1021.33
2019-03-23T05:11:38.840Z,1021.27
2019-03-23T05:12:38.828Z,1021.28
2019-03-23T05:13:38.827Z,1021.26
2019-03-23T05:14:38.842Z,1021.30
2019-03-23T05:15:38.798Z,1021.31
2019-03-23T05:16:38.790Z,1021.40
2019-03-23T05:17:38.773Z,1021.46
2019-03-23T05:18:38.766Z,1021.46
2019-03-23T05:19:38.758Z,1021.39
2019-03-23T05:20:38.774Z,1021.41
2019-03-23T05:21:38.735Z,1021.42
2019-03-23T05:22:38.719Z,1021.44
2019-03-23T05:23:38.741Z,1021.44
2019-03-23T05:24:38.731Z,1021.51
2019-03-23T05:25:38.691Z,1021.44
2019-03-23T05:26:38.688Z,1021.42
2019-03-23T05:27:38.701Z,1021.45
2019-03-23T05:28:38.665Z,1021.45
2019-03-23T05:29:38.646Z,1021.44
2019-03-23T05:30:38.639Z,1021.43
2019-03-23T05:31:38.628Z,1021.44
2019-03-23T05:32:38.615Z,1021.52
2019-03-23T05:33:38.643Z,1021.50
2019-03-23T05:34:38.588Z,1021.53
2019-03-23T05:35:38.584Z,1021.51
2019-03-23T05:36:38.568Z,1021.48
2019-03-23T05:37:38.569Z,1021.50
2019-03-23T05:38:44.232Z,1021.47
2019-03-23T05:39:39.569Z,1021.48
2019-03-23T05:40:38.522Z,1021.50
2019-03-23T05:41:38.521Z,1021.55
2019-03-23T05:42:38.520Z,1021.51
2019-03-23T05:43:38.502Z,1021.51
2019-03-23T05:44:38.520Z,1021.58
2019-03-23T05:45:38.508Z,1021.52
2019-03-23T05:46:38.462Z,1021.56
2019-03-23T05:47:38.453Z,1021.54
2019-03-23T05:48:38.450Z,1021.55
2019-03-23T05:49:38.434Z,1021.61
2019-03-23T05:50:38.452Z,1021.56
2019-03-23T05:51:38.414Z,1021.66
2019-03-23T05:52:38.409Z,1021.62
2019-03-23T05:53:38.382Z,1021.60
2019-03-23T05:54:38.375Z,1021.59
2019-03-23T05:55:38.395Z,1021.58
2019-03-23T05:56:38.355Z,1021.66
2019-03-23T05:57:38.348Z,1021.66
2019-03-23T05:58:38.364Z,1021.66
2019-03-23T05:59:38.319Z,1021.70
2019-03-23T06:00:38.308Z,1021.70
2019-03-23T06:01:38.320Z,1021.75
2019-03-23T06:02:38.346Z,1021.67
2019-03-23T06:03:38.331Z,1021.73
2019-03-23T06:04:38.270Z,1021.70
2019-03-23T06:05:38.271Z,1021.71
2019-03-23T06:06:38.263Z,1021.77
2019-03-23T06:07:38.231Z,1021.83
2019-03-23T06:08:38.279Z,1021.73
2019-03-23T06:09:38.267Z,1021.71
2019-03-23T06:10:38.230Z,1021.71
2019-03-23T06:11:38.198Z,1021.66
2019-03-23T06:12:38.190Z,1021.71
2019-03-23T06:13:38.182Z,1021.71
2019-03-23T06:14:38.227Z,1021.73
2019-03-23T06:15:38.167Z,1021.72
2019-03-23T06:16:38.275Z,1021.73
2019-03-23T06:17:38.140Z,1021.67
2019-03-23T06:18:38.128Z,1021.75
2019-03-23T06:19:38.120Z,1021.69
2019-03-23T06:20:38.132Z,1021.70
2019-03-23T06:21:38.093Z,1021.74
2019-03-23T06:22:38.072Z,1021.75
2019-03-23T06:23:38.117Z,1021.74
2019-03-23T06:24:38.072Z,1021.71
2019-03-23T06:25:38.118Z,1021.75
2019-03-23T06:26:38.039Z,1021.73
2019-03-23T06:27:38.020Z,1021.75
2019-03-23T06:28:38.024Z,1021.73
2019-03-23T06:29:37.998Z,1021.74
2019-03-23T06:30:38.033Z,1021.79
2019-03-23T06:31:37.987Z,1021.76
2019-03-23T06:32:38.045Z,1021.75
2019-03-23T06:33:37.968Z,1021.76
2019-03-23T06:34:37.990Z,1021.80
2019-03-23T06:35:37.931Z,1021.81
2019-03-23T06:36:37.924Z,1021.80
2019-03-23T06:37:37.960Z,1021.81
2019-03-23T06:38:37.916Z,1021.80
2019-03-23T06:39:37.930Z,1021.79
2019-03-23T06:40:37.877Z,1021.87
2019-03-23T06:41:37.885Z,1021.82
2019-03-23T06:42:37.928Z,1021.85
2019-03-23T06:43:37.849Z,1021.84
2019-03-23T06:44:37.851Z,1021.83
2019-03-23T06:45:37.836Z,1021.82
2019-03-23T06:46:37.815Z,1021.83
2019-03-23T06:47:37.818Z,1021.82
2019-03-23T06:48:37.844Z,1021.82
2019-03-23T06:49:37.800Z,1021.85
2019-03-23T06:50:37.774Z,1021.84
2019-03-23T06:51:37.783Z,1021.83
2019-03-23T06:52:37.768Z,1021.83
2019-03-23T06:53:37.735Z,1021.88
2019-03-23T06:54:37.791Z,1021.92
2019-03-23T06:55:37.711Z,1021.87
2019-03-23T06:56:37.776Z,1021.90
2019-03-23T06:57:37.736Z,1021.93
2019-03-23T06:58:38.648Z,1021.88
2019-03-23T06:59:37.746Z,1021.87
2019-03-23T07:00:37.691Z,1021.85
2019-03-23T07:01:37.659Z,1021.80
2019-03-23T07:02:37.675Z,1021.85
2019-03-23T07:03:37.651Z,1021.88
2019-03-23T07:04:37.614Z,1021.86
2019-03-23T07:05:37.644Z,1021.85
2019-03-23T07:06:37.600Z,1021.88
2019-03-23T07:07:37.611Z,1021.85
2019-03-23T07:08:37.639Z,1021.92
2019-03-23T07:09:37.569Z,1021.85
2019-03-23T07:10:37.616Z,1021.83
2019-03-23T07:11:37.594Z,1021.85
2019-03-23T07:12:37.527Z,1021.91
2019-03-23T07:13:37.523Z,1021.90
2019-03-23T07:14:37.503Z,1021.92
2019-03-23T07:15:37.566Z,1021.90
2019-03-23T07:16:37.483Z,1021.91
2019-03-23T07:17:37.496Z,1021.90
2019-03-23T07:18:37.470Z,1021.93
2019-03-23T07:19:37.485Z,1021.87
2019-03-23T07:20:37.452Z,1021.92
2019-03-23T07:21:37.438Z,1021.94
2019-03-23T07:22:37.430Z,1021.89
2019-03-23T07:23:37.435Z,1021.94
2019-03-23T07:24:37.439Z,1021.96
2019-03-23T07:25:37.422Z,1022.02
2019-03-23T07:26:37.381Z,1022.07
2019-03-23T07:27:37.370Z,1022.09
2019-03-23T07:28:37.423Z,1022.07
2019-03-23T07:29:37.374Z,1022.12
2019-03-23T07:30:37.341Z,1022.08
2019-03-23T07:31:37.336Z,1022.18
2019-03-23T07:32:37.356Z,1022.09
2019-03-23T07:33:37.296Z,1022.12
2019-03-23T07:34:37.289Z,1022.11
2019-03-23T07:35:37.289Z,1022.10
2019-03-23T07:36:37.292Z,1022.13
2019-03-23T07:37:37.274Z,1022.10
2019-03-23T07:38:37.275Z,1022.27
2019-03-23T07:39:37.252Z,1022.27
2019-03-23T07:40:37.279Z,1022.25
2019-03-23T07:41:37.221Z,1022.27
2019-03-23T07:42:37.222Z,1022.29
2019-03-23T07:43:37.205Z,1022.29
2019-03-23T07:44:37.239Z,1022.29
2019-03-23T07:45:37.172Z,1022.23
2019-03-23T07:46:37.221Z,1022.33
2019-03-23T07:47:37.157Z,1022.27
2019-03-23T07:48:37.173Z,1022.32
2019-03-23T07:49:37.122Z,1022.26
2019-03-23T07:50:37.190Z,1022.24
2019-03-23T07:51:37.105Z,1022.28
2019-03-23T07:52:37.124Z,1022.22
2019-03-23T07:53:37.140Z,1022.18
2019-03-23T07:54:37.078Z,1022.23
2019-03-23T07:55:37.070Z,1022.21
2019-03-23T07:56:37.053Z,1022.21
2019-03-23T07:57:37.045Z,1022.21
2019-03-23T07:58:37.105Z,1022.20
2019-03-23T07:59:37.045Z,1022.23
2019-03-23T08:00:37.074Z,1022.21
2019-03-23T08:01:37.007Z,1022.22
2019-03-23T08:02:37.016Z,1022.28
2019-03-23T08:03:36.977Z,1022.24
2019-03-23T08:04:36.963Z,1022.26
2019-03-23T08:05:36.954Z,1022.31
2019-03-23T08:06:36.983Z,1022.31
2019-03-23T08:07:36.946Z,1022.34
2019-03-23T08:08:36.914Z,1022.28
2019-03-23T08:09:37.897Z,1022.33
2019-03-23T08:10:36.892Z,1022.30
2019-03-23T08:11:36.949Z,1022.37
2019-03-23T08:12:36.979Z,1022.39
2019-03-23T08:13:36.883Z,1022.38
2019-03-23T08:14:36.858Z,1022.37
2019-03-23T08:15:36.844Z,1022.36
2019-03-23T08:16:36.853Z,1022.45
2019-03-23T08:17:36.831Z,1022.38
2019-03-23T08:18:36.852Z,1022.41
2019-03-23T08:19:36.846Z,1022.44
2019-03-23T08:20:36.821Z,1022.47
2019-03-23T08:21:36.785Z,1022.41
2019-03-23T08:22:36.771Z,1022.43
2019-03-23T08:23:36.774Z,1022.41
2019-03-23T08:24:36.816Z,1022.46
2019-03-23T08:25:36.772Z,1022.40
2019-03-23T08:26:36.752Z,1022.40
2019-03-23T08:27:36.722Z,1022.42
2019-03-23T08:28:36.712Z,1022.47
2019-03-23T08:29:36.684Z,1022.46
2019-03-23T08:30:36.724Z,1022.47
2019-03-23T08:31:36.689Z,1022.49
2019-03-23T08:32:36.699Z,1022.49
2019-03-23T08:33:36.642Z,1022.47
2019-03-23T08:34:36.721Z,1022.44
2019-03-23T08:35:36.658Z,1022.45
2019-03-23T08:36:36.626Z,1022.46
2019-03-23T08:37:36.603Z,1022.43
2019-03-23T08:38:36.594Z,1022.44
2019-03-23T08:39:36.618Z,1022.43
2019-03-23T08:40:36.584Z,1022.42
2019-03-23T08:41:36.593Z,1022.49
2019-03-23T08:42:36.553Z,1022.47
2019-03-23T08:43:36.572Z,1022.47
2019-03-23T08:44:36.530Z,1022.46
2019-03-23T08:45:36.572Z,1022.47
2019-03-23T08:46:36.511Z,1022.49
2019-03-23T08:47:36.491Z,1022.50
2019-03-23T08:48:36.478Z,1022.50
2019-03-23T08:49:36.489Z,1022.48
2019-03-23T08:50:36.501Z,1022.48
2019-03-23T08:51:36.440Z,1022.54
2019-03-23T08:52:36.437Z,1022.52
2019-03-23T08:53:36.433Z,1022.53
2019-03-23T08:54:36.458Z,1022.54
2019-03-23T08:55:36.437Z,1022.60
2019-03-23T08:56:37.459Z,1022.57
2019-03-23T08:57:36.416Z,1022.51
2019-03-23T08:58:36.378Z,1022.59
2019-03-23T08:59:36.399Z,1022.51
2019-03-23T09:00:36.360Z,1022.56
2019-03-23T09:01:36.337Z,1022.60
2019-03-23T09:02:36.325Z,1022.58
2019-03-23T09:03:36.415Z,1022.58
2019-03-23T09:04:36.342Z,1022.65
2019-03-23T09:05:36.331Z,1022.62
2019-03-23T09:06:36.281Z,1022.68
2019-03-23T09:07:36.286Z,1022.62
2019-03-23T09:08:36.288Z,1022.66
2019-03-23T09:09:36.248Z,1022.59
2019-03-23T09:10:36.288Z,1022.65
2019-03-23T09:11:36.226Z,1022.63
2019-03-23T09:12:36.223Z,1022.64
2019-03-23T09:13:40.599Z,1022.66
2019-03-23T09:14:36.212Z,1022.68
2019-03-23T09:15:36.220Z,1022.68
2019-03-23T09:16:36.173Z,1022.68
2019-03-23T09:17:36.193Z,1022.71
2019-03-23T09:18:36.164Z,1022.76
2019-03-23T09:19:36.148Z,1022.70
2019-03-23T09:20:36.127Z,1022.71
2019-03-23T09:21:36.159Z,1022.68
2019-03-23T09:22:36.135Z,1022.73
2019-03-23T09:23:36.111Z,1022.77
2019-03-23T09:24:36.086Z,1022.74
2019-03-23T09:25:36.084Z,1022.79
2019-03-23T09:26:36.079Z,1022.76
2019-03-23T09:27:36.094Z,1022.75
2019-03-23T09:28:36.039Z,1022.78
2019-03-23T09:29:36.032Z,1022.71
2019-03-23T09:30:36.079Z,1022.76
2019-03-23T09:31:36.010Z,1022.79
2019-03-23T09:32:36.010Z,1022.80
2019-03-23T09:33:35.985Z,1022.80
2019-03-23T09:34:35.988Z,1022.78
2019-03-23T09:35:39.359Z,1022.79
2019-03-23T09:36:35.979Z,1022.87
2019-03-23T09:37:38.294Z,1022.80
2019-03-23T09:38:35.935Z,1022.84
2019-03-23T09:39:35.925Z,1022.80
2019-03-23T09:40:35.922Z,1022.78
2019-03-23T09:41:35.965Z,1022.80
2019-03-23T09:42:35.920Z,1022.83
2019-03-23T09:43:35.882Z,1022.83
2019-03-23T09:44:35.917Z,1022.81
2019-03-23T09:45:35.854Z,1022.77
2019-03-23T09:46:35.851Z,1022.71
2019-03-23T09:47:35.829Z,1022.79
2019-03-23T09:48:35.895Z,1022.75
2019-03-23T09:49:35.815Z,1022.75
2019-03-23T09:50:35.810Z,1022.75
2019-03-23T09:51:35.813Z,1022.74
2019-03-23T09:52:35.825Z,1022.72
2019-03-23T09:53:35.799Z,1022.73
2019-03-23T09:54:35.807Z,1022.72
2019-03-23T09:55:35.757Z,1022.75
2019-03-23T09:56:35.725Z,1022.72
2019-03-23T09:57:35.727Z,1022.77
2019-03-23T09:58:35.752Z,1022.78
2019-03-23T09:59:35.709Z,1022.78
2019-03-23T10:00:35.714Z,1022.78
2019-03-23T10:01:35.700Z,1022.76
2019-03-23T10:02:35.672Z,1022.73
2019-03-23T10:03:35.658Z,1022.74
2019-03-23T10:04:35.677Z,1022.70
2019-03-23T10:05:35.633Z,1022.70
2019-03-23T10:06:35.647Z,1022.70
2019-03-23T10:07:35.636Z,1022.70
2019-03-23T10:08:35.598Z,1022.68
2019-03-23T10:09:35.593Z,1022.72
2019-03-23T10:10:35.617Z,1022.75
2019-03-23T10:11:35.582Z,1022.70
2019-03-23T10:12:35.559Z,1022.69
2019-03-23T10:13:35.542Z,1022.75
2019-03-23T10:14:35.582Z,1022.80
2019-03-23T10:15:35.528Z,1022.75
2019-03-23T10:16:35.522Z,1022.80
2019-03-23T10:17:35.492Z,1022.80
2019-03-23T10:18:35.499Z,1022.78
2019-03-23T10:19:35.487Z,1022.76
2019-03-23T10:20:35.500Z,1022.76
2019-03-23T10:21:35.463Z,1022.78
2019-03-23T10:22:35.446Z,1022.81
2019-03-23T10:23:35.461Z,1022.77
2019-03-23T10:24:35.414Z,1022.78
2019-03-23T10:25:35.409Z,1022.80
2019-03-23T10:26:35.444Z,1022.85
2019-03-23T10:27:35.385Z,1022.69
2019-03-23T10:28:35.393Z,1022.67
2019-03-23T10:29:35.355Z,1022.71
2019-03-23T10:30:35.386Z,1022.68
2019-03-23T10:31:35.376Z,1022.77
2019-03-23T10:32:35.356Z,1022.80
2019-03-23T10:33:35.321Z,1022.68
2019-03-23T10:34:35.317Z,1022.77
2019-03-23T10:35:35.313Z,1022.78
2019-03-23T10:36:35.316Z,1022.75
2019-03-23T10:37:35.308Z,1022.74
2019-03-23T10:38:35.263Z,1022.72
2019-03-23T10:39:35.281Z,1022.69
2019-03-23T10:40:35.247Z,1022.71
2019-03-23T10:41:35.264Z,1022.63
2019-03-23T10:42:35.275Z,1022.62
2019-03-23T10:43:35.200Z,1022.67
2019-03-23T10:44:35.194Z,1022.67
2019-03-23T10:45:43.810Z,1022.66
2019-03-23T10:46:37.947Z,1022.63
2019-03-23T10:47:35.209Z,1022.68
2019-03-23T10:48:35.176Z,1022.66
2019-03-23T10:49:35.195Z,1022.69
2019-03-23T10:50:35.133Z,1022.65
2019-03-23T10:51:35.130Z,1022.67
2019-03-23T10:52:35.135Z,1022.67
2019-03-23T10:53:35.129Z,1022.66
2019-03-23T10:54:35.112Z,1022.68
2019-03-23T10:55:35.069Z,1022.67
2019-03-23T10:56:35.062Z,1022.67
2019-03-23T10:57:35.050Z,1022.66
2019-03-23T10:58:35.069Z,1022.62
2019-03-23T10:59:35.073Z,1022.67
2019-03-23T11:00:36.545Z,1022.61
2019-03-23T11:01:36.499Z,1022.59
2019-03-23T11:02:34.988Z,1022.61
2019-03-23T11:03:34.983Z,1022.62
2019-03-23T11:04:34.986Z,1022.65
2019-03-23T11:05:35.041Z,1022.62
2019-03-23T11:06:34.952Z,1022.67
2019-03-23T11:07:34.939Z,1022.62
2019-03-23T11:08:34.918Z,1022.60
2019-03-23T11:09:34.914Z,1022.63
2019-03-23T11:10:41.690Z,1022.70
2019-03-23T11:11:35.946Z,1022.65
2019-03-23T11:12:37.063Z,1022.63
2019-03-23T11:13:34.887Z,1022.62
2019-03-23T11:14:34.857Z,1022.65
2019-03-23T11:15:34.862Z,1022.65
2019-03-23T11:16:34.886Z,1022.66
2019-03-23T11:17:34.881Z,1022.68
2019-03-23T11:18:34.822Z,1022.65
2019-03-23T11:19:34.797Z,1022.69
2019-03-23T11:20:34.824Z,1022.62
2019-03-23T11:21:34.818Z,1022.73
2019-03-23T11:22:34.776Z,1022.67
2019-03-23T11:23:34.767Z,1022.67
2019-03-23T11:24:34.741Z,1022.67
2019-03-23T11:25:34.748Z,1022.64
2019-03-23T11:26:34.769Z,1022.62
2019-03-23T11:27:34.743Z,1022.66
2019-03-23T11:28:34.721Z,1022.63
2019-03-23T11:29:34.696Z,1022.59
2019-03-23T11:30:34.682Z,1022.68
2019-03-23T11:31:34.667Z,1022.61
2019-03-23T11:32:34.698Z,1022.62
2019-03-23T11:33:34.679Z,1022.61
2019-03-23T11:34:34.643Z,1022.61
2019-03-23T11:35:34.622Z,1022.61
2019-03-23T11:36:34.657Z,1022.61
2019-03-23T11:37:34.740Z,1022.61
2019-03-23T11:38:34.586Z,1022.55
2019-03-23T11:39:34.592Z,1022.58
2019-03-23T11:40:34.613Z,1022.62
2019-03-23T11:41:34.584Z,1022.63
2019-03-23T11:42:34.552Z,1022.64
2019-03-23T11:43:34.551Z,1022.67
2019-03-23T11:44:34.525Z,1022.68
2019-03-23T11:45:34.558Z,1022.67
2019-03-23T11:46:34.515Z,1022.63
2019-03-23T11:47:34.492Z,1022.59
2019-03-23T11:48:34.494Z,1022.62
2019-03-23T11:49:34.493Z,1022.59
2019-03-23T11:50:34.461Z,1022.60
2019-03-23T11:51:34.510Z,1022.56
2019-03-23T11:52:34.441Z,1022.55
2019-03-23T11:53:34.441Z,1022.59
2019-03-23T11:54:34.424Z,1022.61
2019-03-23T11:55:34.403Z,1022.58
2019-03-23T11:56:34.402Z,1022.58
2019-03-23T11:57:34.421Z,1022.58
2019-03-23T11:58:34.381Z,1022.60
2019-03-23T11:59:34.410Z,1022.58
2019-03-23T12:00:34.359Z,1022.61
2019-03-23T12:01:34.347Z,1022.63
2019-03-23T12:02:34.326Z,1022.58
2019-03-23T12:03:34.354Z,1022.61
2019-03-23T12:04:34.298Z,1022.63
2019-03-23T12:05:34.316Z,1022.60